Serval — J8B4154 — position and weather

sailwx.info

Track history (hours):
 
Tides and Currents Weather Stations Pressure Air Temp Water Temp Dewpoint Dewpoint Depression Visibility Wind Speed Wind Dir Waves Ship Positions

Serval

Last reported at 2015-Mar-28 03:07 UTC. Time now 2015-Mar-28 14:21 UTC.
Position N 57°09' E 008°28'.

Length 30 m; draft 4.7 m.

Type: . MMSI: 377103000.

Date/timePositionNaut miles runAvg speedWind from/ knotsBaromVisibWave heightAir tempDewpointWater temp
2015-Mar-28 03:07N 57°09' E 008°28'4 6.3
2015-Mar-28 02:27N 57°06' E 008°24'  
2015-Mar-25 06:33N 51°32' E 002°19'8 8.2
2015-Mar-25 05:31N 51°25' E 002°11'8 7.9
2015-Mar-25 04:33N 51°18' E 002°06'8 7.7
2015-Mar-25 03:33N 51°11' E 001°58'8 8.3
2015-Mar-25 02:33N 51°07' E 001°48'8 8.2
2015-Mar-25 01:33N 51°00' E 001°39'  
2015-Mar-22 06:23N 51°01' E 001°27'7 8.2
2015-Mar-22 05:33N 51°06' E 001°35'8 8.0
2015-Mar-22 04:33N 51°11' E 001°43'7 6.8
2015-Mar-22 03:33N 51°17' E 001°49'6 5.8
2015-Mar-22 02:33N 51°22' E 001°53'6 6.1
2015-Mar-22 01:33N 51°28' E 001°58'9 7.4
2015-Mar-22 00:21N 51°34' E 002°07'9 8.5
2015-Mar-21 23:20N 51°41' E 002°16'145 8.1
2015-Mar-21 05:28N 53°32' E 004°51'6 6.6
2015-Mar-21 04:32N 53°33' E 005°00'8 7.6
2015-Mar-21 03:32N 53°36' E 005°13'9 8.8
2015-Mar-21 02:33N 53°39' E 005°26'9 9.0
2015-Mar-21 01:33N 53°41' E 005°41'37 5.3
2015-Mar-20 18:33N 53°33' E 006°42'6 6.0
2015-Mar-20 17:33N 53°29' E 006°50'2 2.1
2015-Mar-20 16:24N 53°27' E 006°49'0 0.0
2015-Mar-20 15:30N 53°27' E 006°49'0 0.0
2015-Mar-20 14:30N 53°27' E 006°49'0 0.0
2015-Mar-20 13:33N 53°27' E 006°49'0 0.0
2015-Mar-20 12:33N 53°27' E 006°49'0 0.0
2015-Mar-20 11:33N 53°27' E 006°49'0 0.0
2015-Mar-20 10:30N 53°27' E 006°49'0 0.0
2015-Mar-20 09:27N 53°27' E 006°49'0 0.0
2015-Mar-20 08:30N 53°27' E 006°49'0 0.0
2015-Mar-20 07:33N 53°27' E 006°49'0 0.0
2015-Mar-20 06:30N 53°27' E 006°49'0 0.0
2015-Mar-20 05:27N 53°27' E 006°49'0 0.0
2015-Mar-20 04:33N 53°27' E 006°49'0 0.0
2015-Mar-20 03:33N 53°27' E 006°50'0 0.0
2015-Mar-20 02:24N 53°27' E 006°49'0 0.0
2015-Mar-20 01:33N 53°27' E 006°49'0 0.0
2015-Mar-20 00:27N 53°27' E 006°49'0 0.0
2015-Mar-19 23:27N 53°27' E 006°49'0 0.0
2015-Mar-19 22:33N 53°27' E 006°49'0 0.0
2015-Mar-19 21:27N 53°27' E 006°49'0 0.0
2015-Mar-19 20:33N 53°27' E 006°49'0 0.0
2015-Mar-19 19:33N 53°27' E 006°49'0 0.0
2015-Mar-19 18:33N 53°27' E 006°49'0 0.0
2015-Mar-19 17:30N 53°27' E 006°49'0 0.0
2015-Mar-19 16:30N 53°27' E 006°49'0 0.0
2015-Mar-19 15:24N 53°27' E 006°50'0 0.0
2015-Mar-19 14:27N 53°27' E 006°49'0 0.0
2015-Mar-19 13:33N 53°27' E 006°50'0 0.0
2015-Mar-19 12:30N 53°27' E 006°49'0 0.0
2015-Mar-19 11:33N 53°27' E 006°50'0 0.0
2015-Mar-19 10:33N 53°27' E 006°50'0 0.0
2015-Mar-19 09:30N 53°27' E 006°49'0 0.0
2015-Mar-19 08:33N 53°27' E 006°49'0 0.0
2015-Mar-19 07:33N 53°27' E 006°49'0 0.0
2015-Mar-19 06:33N 53°27' E 006°49'0 0.0
2015-Mar-19 05:30N 53°27' E 006°49'0 0.0
2015-Mar-19 04:30N 53°27' E 006°49'0 0.0
2015-Mar-19 03:33N 53°27' E 006°49'0 0.0
2015-Mar-19 02:33N 53°27' E 006°49'0 0.0
2015-Mar-19 01:27N 53°27' E 006°49'0 0.0
2015-Mar-19 00:30N 53°27' E 006°49'0 0.0
2015-Mar-18 23:33N 53°27' E 006°49'0 0.0
2015-Mar-18 22:33N 53°27' E 006°49'0 0.0
2015-Mar-18 21:27N 53°27' E 006°49'0 0.0
2015-Mar-18 20:33N 53°27' E 006°49'0 0.0
2015-Mar-18 19:33N 53°27' E 006°49'0 0.1
2015-Mar-18 18:33N 53°27' E 006°50'0 0.2
2015-Mar-18 17:28N 53°27' E 006°49'1 0.7
2015-Mar-18 16:31N 53°27' E 006°50'0 0.0
2015-Mar-18 15:28N 53°27' E 006°50'0 0.0
2015-Mar-18 14:31N 53°27' E 006°50'0 0.0
2015-Mar-18 13:28N 53°27' E 006°50'0 0.0
2015-Mar-18 12:25N 53°27' E 006°50'0 0.0
2015-Mar-18 11:28N 53°27' E 006°50'0 0.0
2015-Mar-18 10:31N 53°27' E 006°50'0 0.0
2015-Mar-18 09:31N 53°27' E 006°50'0 0.0
2015-Mar-18 08:31N 53°27' E 006°50'0 0.0
2015-Mar-18 07:22N 53°27' E 006°50'0 0.0
2015-Mar-18 06:28N 53°27' E 006°50'0 0.0
2015-Mar-18 05:25N 53°27' E 006°50'0 0.0
2015-Mar-18 04:28N 53°27' E 006°50'0 0.0
2015-Mar-18 03:25N 53°27' E 006°50'  
Track history (hours):
 
Tides and Currents Weather Stations Pressure Air Temp Water Temp Dewpoint Dewpoint Depression Visibility Wind Speed Wind Dir Waves Ship Positions

Serval

Last reported at 2015-Mar-28 03:07 UTC. Time now 2015-Mar-28 14:21 UTC.
Position N 57°09' E 008°28'.

Length 30 m; draft 4.7 m.

Type: . MMSI: 377103000.

Date/timePositionNaut miles runAvg speedWind from/ knotsBaromVisibWave heightAir tempDewpointWater temp
2015-Mar-28 03:07N 57°09' E 008°28'4 6.3
2015-Mar-28 02:27N 57°06' E 008°24'  
2015-Mar-25 06:33N 51°32' E 002°19'8 8.2
2015-Mar-25 05:31N 51°25' E 002°11'8 7.9
2015-Mar-25 04:33N 51°18' E 002°06'8 7.7
2015-Mar-25 03:33N 51°11' E 001°58'8 8.3
2015-Mar-25 02:33N 51°07' E 001°48'8 8.2
2015-Mar-25 01:33N 51°00' E 001°39'  
2015-Mar-22 06:23N 51°01' E 001°27'7 8.2
2015-Mar-22 05:33N 51°06' E 001°35'8 8.0
2015-Mar-22 04:33N 51°11' E 001°43'7 6.8
2015-Mar-22 03:33N 51°17' E 001°49'6 5.8
2015-Mar-22 02:33N 51°22' E 001°53'6 6.1
2015-Mar-22 01:33N 51°28' E 001°58'9 7.4
2015-Mar-22 00:21N 51°34' E 002°07'9 8.5
2015-Mar-21 23:20N 51°41' E 002°16'145 8.1
2015-Mar-21 05:28N 53°32' E 004°51'6 6.6
2015-Mar-21 04:32N 53°33' E 005°00'8 7.6
2015-Mar-21 03:32N 53°36' E 005°13'9 8.8
2015-Mar-21 02:33N 53°39' E 005°26'9 9.0
2015-Mar-21 01:33N 53°41' E 005°41'37 5.3
2015-Mar-20 18:33N 53°33' E 006°42'6 6.0
2015-Mar-20 17:33N 53°29' E 006°50'2 2.1
2015-Mar-20 16:24N 53°27' E 006°49'0 0.0
2015-Mar-20 15:30N 53°27' E 006°49'0 0.0
2015-Mar-20 14:30N 53°27' E 006°49'0 0.0
2015-Mar-20 13:33N 53°27' E 006°49'0 0.0
2015-Mar-20 12:33N 53°27' E 006°49'0 0.0
2015-Mar-20 11:33N 53°27' E 006°49'0 0.0
2015-Mar-20 10:30N 53°27' E 006°49'0 0.0
2015-Mar-20 09:27N 53°27' E 006°49'0 0.0
2015-Mar-20 08:30N 53°27' E 006°49'0 0.0
2015-Mar-20 07:33N 53°27' E 006°49'0 0.0
2015-Mar-20 06:30N 53°27' E 006°49'0 0.0
2015-Mar-20 05:27N 53°27' E 006°49'0 0.0
2015-Mar-20 04:33N 53°27' E 006°49'0 0.0
2015-Mar-20 03:33N 53°27' E 006°50'0 0.0
2015-Mar-20 02:24N 53°27' E 006°49'0 0.0
2015-Mar-20 01:33N 53°27' E 006°49'0 0.0
2015-Mar-20 00:27N 53°27' E 006°49'0 0.0
2015-Mar-19 23:27N 53°27' E 006°49'0 0.0
2015-Mar-19 22:33N 53°27' E 006°49'0 0.0
2015-Mar-19 21:27N 53°27' E 006°49'0 0.0
2015-Mar-19 20:33N 53°27' E 006°49'0 0.0
2015-Mar-19 19:33N 53°27' E 006°49'0 0.0
2015-Mar-19 18:33N 53°27' E 006°49'0 0.0
2015-Mar-19 17:30N 53°27' E 006°49'0 0.0
2015-Mar-19 16:30N 53°27' E 006°49'0 0.0
2015-Mar-19 15:24N 53°27' E 006°50'0 0.0
2015-Mar-19 14:27N 53°27' E 006°49'0 0.0
2015-Mar-19 13:33N 53°27' E 006°50'0 0.0
2015-Mar-19 12:30N 53°27' E 006°49'0 0.0
2015-Mar-19 11:33N 53°27' E 006°50'0 0.0
2015-Mar-19 10:33N 53°27' E 006°50'0 0.0
2015-Mar-19 09:30N 53°27' E 006°49'0 0.0
2015-Mar-19 08:33N 53°27' E 006°49'0 0.0
2015-Mar-19 07:33N 53°27' E 006°49'0 0.0
2015-Mar-19 06:33N 53°27' E 006°49'0 0.0
2015-Mar-19 05:30N 53°27' E 006°49'0 0.0
2015-Mar-19 04:30N 53°27' E 006°49'0 0.0
2015-Mar-19 03:33N 53°27' E 006°49'0 0.0
2015-Mar-19 02:33N 53°27' E 006°49'0 0.0
2015-Mar-19 01:27N 53°27' E 006°49'0 0.0
2015-Mar-19 00:30N 53°27' E 006°49'0 0.0
2015-Mar-18 23:33N 53°27' E 006°49'0 0.0
2015-Mar-18 22:33N 53°27' E 006°49'0 0.0
2015-Mar-18 21:27N 53°27' E 006°49'0 0.0
2015-Mar-18 20:33N 53°27' E 006°49'0 0.0
2015-Mar-18 19:33N 53°27' E 006°49'0 0.1
2015-Mar-18 18:33N 53°27' E 006°50'0 0.2
2015-Mar-18 17:28N 53°27' E 006°49'1 0.7
2015-Mar-18 16:31N 53°27' E 006°50'0 0.0
2015-Mar-18 15:28N 53°27' E 006°50'0 0.0
2015-Mar-18 14:31N 53°27' E 006°50'0 0.0
2015-Mar-18 13:28N 53°27' E 006°50'0 0.0
2015-Mar-18 12:25N 53°27' E 006°50'0 0.0
2015-Mar-18 11:28N 53°27' E 006°50'0 0.0
2015-Mar-18 10:31N 53°27' E 006°50'0 0.0
2015-Mar-18 09:31N 53°27' E 006°50'0 0.0
2015-Mar-18 08:31N 53°27' E 006°50'0 0.0
2015-Mar-18 07:22N 53°27' E 006°50'0 0.0
2015-Mar-18 06:28N 53°27' E 006°50'0 0.0
2015-Mar-18 05:25N 53°27' E 006°50'0 0.0
2015-Mar-18 04:28N 53°27' E 006°50'0 0.0
2015-Mar-18 03:25N 53°27' E 006°50'  

Dump ship's entire track history